Time;durP1;ratioP1;P1;durP2;ratioP2;P2;SDS_P1;SDS_P2;PMS_P1;PMS_P2;Temp;Humidity;BMP_temperature;BMP_pressure;BME280_temperature;BME280_humidity;BME280_pressure;Samples;Min_cycle;Max_cycle;Signal;HPM_P1;HPM_P2
2023/04/07 00:08:25;;;;;;;1.60;1.20;;;;;;;17.35;49.32;101073.09;20721255;28;20038;-86
2023/04/07 00:18:26;;;;;;;1.35;1.25;;;;;;;17.34;49.14;101066.84;20743939;28;20049;-86
2023/04/07 00:28:28;;;;;;;1.52;1.27;;;;;;;17.47;49.07;101088.22;20724268;28;20168;-86
2023/04/07 00:38:30;;;;;;;2.42;1.40;;;;;;;17.33;49.38;101070.53;20741000;28;20045;-86
2023/04/07 00:48:32;;;;;;;1.20;1.10;;;;;;;17.47;49.37;101084.69;20750229;28;20533;-86
2023/04/07 00:58:34;;;;;;;1.65;1.30;;;;;;;17.46;49.41;101093.75;20720915;28;20078;-86
2023/04/07 01:08:48;;;;;;;1.17;1.05;;;;;;;17.44;49.58;101083.09;20724348;28;20582;-87
2023/04/07 01:18:55;;;;;;;1.65;1.55;;;;;;;17.43;49.57;101081.38;20738066;28;20080;-86
2023/04/07 01:29:21;;;;;;;1.20;1.10;;;;;;;17.44;49.56;101082.22;20737169;28;20457;-86
2023/04/07 01:39:26;;;;;;;1.25;1.15;;;;;;;17.45;49.59;101079.41;20725483;28;20502;-86
2023/04/07 01:49:29;;;;;;;1.10;1.00;;;;;;;17.43;49.78;101092.16;20727326;28;20056;-86
2023/04/07 01:59:32;;;;;;;1.58;1.48;;;;;;;17.43;49.83;101081.38;20739338;28;20057;-86
2023/04/07 02:09:38;;;;;;;1.35;1.25;;;;;;;17.30;49.68;101061.88;20744600;28;20038;-87
2023/04/07 02:19:41;;;;;;;1.50;1.40;;;;;;;17.38;49.89;101078.22;20751733;28;20050;-86
2023/04/07 02:29:43;;;;;;;1.40;1.30;;;;;;;17.42;49.89;101079.69;20752851;28;20112;-86
2023/04/07 02:39:45;;;;;;;1.40;1.30;;;;;;;17.41;49.82;101086.03;20752022;28;20437;-86
2023/04/07 02:49:46;;;;;;;1.40;1.30;;;;;;;17.38;49.80;101089.00;20753049;28;20410;-86
2023/04/07 02:59:48;;;;;;;1.50;1.40;;;;;;;17.40;49.90;101097.78;20736635;28;20046;-85
2023/04/07 03:09:51;;;;;;;1.83;1.73;;;;;;;17.41;50.02;101104.88;20748974;28;20046;-86
2023/04/07 03:19:53;;;;;;;1.50;1.40;;;;;;;17.41;49.97;101110.28;20722348;28;20053;-86
2023/04/07 03:29:55;;;;;;;1.50;1.13;;;;;;;17.40;50.05;101105.88;20765575;28;20390;-86
2023/04/07 03:39:59;;;;;;;1.33;1.23;;;;;;;17.39;50.12;101102.31;20748542;28;20462;-86
2023/04/07 03:50:06;;;;;;;1.27;1.17;;;;;;;17.39;50.24;101105.00;20730701;28;20057;-86
2023/04/07 04:00:16;;;;;;;1.05;1.00;;;;;;;17.38;50.12;101114.06;20732168;28;20184;-86
2023/04/07 04:10:29;;;;;;;1.10;1.00;;;;;;;17.37;50.11;101130.34;20744433;28;20042;-86
2023/04/07 04:20:32;;;;;;;1.37;1.27;;;;;;;17.38;50.22;101138.28;20742895;28;20494;-86
2023/04/07 04:30:36;;;;;;;1.17;1.08;;;;;;;17.38;50.07;101145.50;20727042;28;20046;-86
2023/04/07 04:40:38;;;;;;;1.38;1.27;;;;;;;17.37;50.14;101141.09;20743119;28;20053;-86
2023/04/07 04:50:41;;;;;;;1.20;1.08;;;;;;;17.38;50.32;101158.97;20701962;28;20045;-86
2023/04/07 05:00:45;;;;;;;1.50;1.40;;;;;;;17.38;50.13;101167.03;20730074;28;20050;-86
2023/04/07 05:10:48;;;;;;;1.30;1.20;;;;;;;17.37;50.19;101162.63;20727525;28;20481;-86
2023/04/07 05:20:54;;;;;;;1.42;1.20;;;;;;;17.36;50.27;101175.22;20744465;28;20077;-86
2023/04/07 05:31:00;;;;;;;1.30;1.20;;;;;;;17.37;50.28;101189.56;20727893;28;20053;-86
2023/04/07 05:41:05;;;;;;;1.08;1.00;;;;;;;17.25;50.20;101169.88;20733411;28;20060;-86
2023/04/07 05:51:09;;;;;;;1.45;1.35;;;;;;;17.35;50.18;101199.59;20744218;28;20049;-86
2023/04/07 06:01:11;;;;;;;1.40;1.30;;;;;;;17.34;50.29;101203.25;20757600;28;20054;-82
2023/04/07 06:11:13;;;;;;;1.70;1.40;;;;;;;17.32;50.30;101216.00;20749636;28;20041;-85
2023/04/07 06:21:15;;;;;;;1.73;1.25;;;;;;;17.34;50.30;101222.09;20722086;28;20052;-87
2023/04/07 06:31:17;;;;;;;1.30;1.20;;;;;;;17.34;50.39;101239.09;20727434;28;20417;-84
2023/04/07 06:41:19;;;;;;;1.30;1.20;;;;;;;17.35;50.28;101242.66;20729434;28;20061;-85
2023/04/07 06:51:22;;;;;;;1.40;1.30;;;;;;;17.34;50.41;101238.25;20719091;28;20049;-86
2023/04/07 07:01:24;;;;;;;1.50;1.40;;;;;;;17.34;50.35;101254.38;20723959;28;20042;-86
2023/04/07 07:11:26;;;;;;;1.50;1.40;;;;;;;17.15;50.37;101222.72;20723265;28;20133;-85
2023/04/07 07:21:28;;;;;;;2.28;1.20;;;;;;;17.38;50.87;101267.47;20725426;28;20050;-79
2023/04/07 07:31:30;;;;;;;1.60;1.23;;;;;;;17.42;50.82;101278.84;20717911;28;20132;-82
2023/04/07 07:41:32;;;;;;;1.42;1.30;;;;;;;17.42;50.72;101291.44;20759088;28;20133;-81
2023/04/07 07:51:34;;;;;;;1.48;1.38;;;;;;;17.42;50.69;101307.56;20728005;28;20042;-81
2023/04/07 08:01:36;;;;;;;1.48;1.38;;;;;;;17.40;51.07;101318.47;20730878;28;20052;-81
2023/04/07 08:11:37;;;;;;;1.88;1.40;;;;;;;17.39;50.94;101328.38;20748256;28;20386;-81
2023/04/07 08:21:39;;;;;;;1.20;1.10;;;;;;;17.40;51.12;101340.00;20731215;28;20048;-81
2023/04/07 08:31:41;;;;;;;1.80;1.50;;;;;;;17.39;51.16;101349.06;20745415;28;20410;-81
2023/04/07 08:41:44;;;;;;;3.22;1.55;;;;;;;17.39;51.18;101362.53;20744893;28;20079;-81
2023/04/07 08:51:47;;;;;;;1.50;1.40;;;;;;;17.38;51.05;101369.72;20729126;28;20042;-81
2023/04/07 09:01:49;;;;;;;1.77;1.30;;;;;;;17.36;51.17;101370.84;20745242;28;20045;-82
2023/04/07 09:11:51;;;;;;;1.95;1.60;;;;;;;17.39;51.11;101378.69;20727221;28;20149;-82
2023/04/07 09:21:53;;;;;;;1.73;1.50;;;;;;;17.39;51.13;101387.59;20742989;28;20057;-82
2023/04/07 09:31:56;;;;;;;1.25;1.13;;;;;;;17.41;51.23;101398.25;20727058;28;20054;-82
2023/04/07 09:41:58;;;;;;;1.13;1.02;;;;;;;17.43;51.27;101392.72;20726331;28;20074;-82
2023/04/07 09:52:04;;;;;;;1.35;1.20;;;;;;;17.44;51.39;101397.13;20742000;28;20078;-82
2023/04/07 10:02:06;;;;;;;1.25;1.13;;;;;;;17.45;51.60;101402.41;20742184;28;20454;-81
2023/04/07 10:12:08;;;;;;;1.30;1.20;;;;;;;17.46;51.56;101403.28;20741415;28;20073;-82
2023/04/07 10:22:11;;;;;;;1.45;1.05;;;;;;;17.34;51.59;101395.16;20742329;28;20056;-82
2023/04/07 10:32:13;;;;;;;1.17;1.08;;;;;;;17.46;51.50;101422.13;20756479;28;20061;-81
2023/04/07 10:42:51;;;;;;;1.02;0.93;;;;;;;17.45;51.44;101429.31;20754390;28;20057;-82
2023/04/07 10:53:12;;;;;;;1.20;1.10;;;;;;;17.46;51.58;101443.66;20705062;28;20049;-82
2023/04/07 11:03:13;;;;;;;1.30;0.90;;;;;;;17.45;51.39;101444.59;20753814;28;20060;-81
2023/04/07 11:13:17;;;;;;;1.17;1.00;;;;;;;17.32;51.39;101442.88;20735554;28;20046;-82
2023/04/07 11:23:21;;;;;;;1.10;1.00;;;;;;;17.43;51.38;101468.09;20735963;28;20401;-82
2023/04/07 11:33:26;;;;;;;0.87;0.87;;;;;;;17.44;51.19;101467.13;20750308;28;20479;-81
2023/04/07 11:43:28;;;;;;;1.10;1.00;;;;;;;17.42;51.18;101472.63;20733982;28;20050;-81
2023/04/07 11:53:31;;;;;;;1.33;1.10;;;;;;;17.43;51.14;101495.88;20732854;28;20045;-81
2023/04/07 12:03:37;;;;;;;0.98;0.93;;;;;;;17.38;50.84;101490.00;20732079;28;20521;-82
2023/04/07 12:13:40;;;;;;;0.90;0.90;;;;;;;17.43;51.01;101503.09;20749016;28;20050;-82
2023/04/07 12:23:41;;;;;;;0.90;0.85;;;;;;;17.23;50.99;101479.44;20738735;28;20050;-82
2023/04/07 12:33:43;;;;;;;0.80;0.70;;;;;;;17.47;50.99;101508.13;20731720;28;20042;-82
2023/04/07 12:43:45;;;;;;;1.30;0.90;;;;;;;17.49;50.94;101516.09;20736140;28;20046;-81
2023/04/07 12:53:47;;;;;;;1.30;0.88;;;;;;;17.49;50.73;101511.56;20716600;28;20084;-88
2023/04/07 13:03:49;;;;;;;0.82;0.82;;;;;;;17.51;50.80;101514.97;20721915;28;20173;-88
2023/04/07 13:13:52;;;;;;;0.70;0.70;;;;;;;17.52;50.85;101511.31;20722256;28;20449;-88
2023/04/07 13:23:57;;;;;;;0.98;0.88;;;;;;;17.52;50.68;101527.47;20711946;28;20438;-87
2023/04/07 13:33:59;;;;;;;0.73;0.73;;;;;;;17.50;50.67;101517.81;20708949;28;20551;-87
2023/04/07 13:44:01;;;;;;;1.05;0.95;;;;;;;17.52;50.66;101516.69;20714497;28;20509;-86
2023/04/07 13:54:02;;;;;;;1.00;0.90;;;;;;;17.53;50.50;101510.34;20731467;28;20062;-85
2023/04/07 14:04:05;;;;;;;0.80;0.80;;;;;;;17.52;50.61;101521.25;20735900;28;20046;-90
2023/04/07 14:14:07;;;;;;;1.05;1.05;;;;;;;17.37;50.39;101493.66;20734252;28;20042;-91
2023/04/07 14:24:08;;;;;;;0.88;0.80;;;;;;;17.52;50.47;101521.25;20729815;28;20046;-84
2023/04/07 14:34:10;;;;;;;0.88;0.88;;;;;;;17.53;50.56;101522.94;20729405;28;20049;-85
2023/04/07 14:44:12;;;;;;;1.23;0.90;;;;;;;17.48;50.62;101528.69;20726147;28;20053;-89
2023/04/07 14:54:14;;;;;;;0.80;0.80;;;;;;;17.53;50.58;101539.09;20725264;28;20034;-81
2023/04/07 15:04:16;;;;;;;1.20;1.10;;;;;;;17.52;50.70;101530.16;20736064;28;20487;-82
2023/04/07 15:14:19;;;;;;;1.88;1.00;;;;;;;17.48;50.65;101542.13;20721854;28;20054;-82
2023/04/07 15:24:21;;;;;;;1.38;1.20;;;;;;;17.49;50.43;101546.56;20741026;28;20056;-82
2023/04/07 15:34:22;;;;;;;1.00;0.90;;;;;;;17.50;50.59;101550.97;20735454;28;20049;-87
2023/04/07 15:44:24;;;;;;;1.00;0.90;;;;;;;17.51;50.81;101549.13;20738730;28;21488;-84
2023/04/07 15:54:26;;;;;;;0.98;0.88;;;;;;;17.16;50.84;101501.56;20722883;28;20054;-83
2023/04/07 16:04:28;;;;;;;1.40;1.30;;;;;;;17.52;50.72;101564.31;20699215;28;20116;-84
2023/04/07 16:14:30;;;;;;;1.08;1.00;;;;;;;17.48;50.83;101569.06;20666594;28;20797;-84
2023/04/07 16:24:31;;;;;;;1.00;0.90;;;;;;;17.51;50.73;101578.75;20663444;28;20144;-84
2023/04/07 16:34:34;;;;;;;1.10;1.00;;;;;;;17.47;50.86;101582.66;20670412;28;20131;-87
2023/04/07 16:44:35;;;;;;;0.90;0.90;;;;;;;17.42;50.95;101584.81;20675770;28;20437;-84
2023/04/07 16:54:37;;;;;;;0.80;0.80;;;;;;;17.47;51.40;101607.72;20694340;28;20521;-91
2023/04/07 17:04:39;;;;;;;0.80;0.80;;;;;;;17.48;51.59;101617.50;20726849;28;20049;-88
2023/04/07 17:14:41;;;;;;;1.55;1.02;;;;;;;17.48;51.70;101630.13;20691869;28;20056;-92
2023/04/07 17:24:43;;;;;;;1.10;0.90;;;;;;;17.44;51.94;101637.56;20705801;28;20133;-89
2023/04/07 17:34:45;;;;;;;2.28;1.10;;;;;;;17.40;51.96;101647.69;20708624;28;20054;-89
2023/04/07 17:44:50;;;;;;;0.88;0.88;;;;;;;17.45;52.18;101663.50;20696529;28;20042;-88
2023/04/07 17:54:51;;;;;;;1.10;1.00;;;;;;;17.45;52.38;101676.97;20705390;28;20137;-89
2023/04/07 18:04:55;;;;;;;1.15;0.90;;;;;;;17.43;52.22;101687.00;20704366;28;20828;-87
2023/04/07 18:14:56;;;;;;;1.73;1.23;;;;;;;17.43;52.32;101691.50;20687860;28;20181;-80
2023/04/07 18:24:59;;;;;;;1.65;1.20;;;;;;;17.27;52.41;101691.81;20680547;28;20048;-88
2023/04/07 18:35:01;;;;;;;2.50;1.38;;;;;;;17.42;52.54;101724.78;20714136;28;20458;-87
2023/04/07 18:45:03;;;;;;;1.17;1.05;;;;;;;17.42;52.57;101746.31;20736833;28;20068;-86
2023/04/07 18:55:07;;;;;;;1.20;1.10;;;;;;;17.40;52.47;101757.22;20754425;28;20483;-87
2023/04/07 19:05:10;;;;;;;1.40;1.10;;;;;;;17.35;52.56;101767.47;20737349;28;20491;-87
2023/04/07 19:15:12;;;;;;;1.05;1.00;;;;;;;17.39;52.53;101791.31;20746897;28;20045;-87
2023/04/07 19:25:14;;;;;;;2.03;1.30;;;;;;;17.30;52.27;101780.38;20729223;28;20112;-87
2023/04/07 19:35:16;;;;;;;1.77;1.40;;;;;;;17.37;52.50;101814.81;20745829;28;20042;-87
2023/04/07 19:45:17;;;;;;;2.20;1.60;;;;;;;16.99;52.22;101743.06;20744099;28;20042;-87
2023/04/07 19:55:19;;;;;;;2.28;1.52;;;;;;;17.37;52.00;101835.50;20742477;28;20096;-87
2023/04/07 20:05:21;;;;;;;1.63;1.40;;;;;;;17.36;51.63;101836.47;20750582;28;20414;-87
2023/04/07 20:15:23;;;;;;;1.40;1.30;;;;;;;17.35;51.63;101848.19;20719012;28;20053;-87
2023/04/07 20:25:25;;;;;;;3.08;1.52;;;;;;;17.35;50.93;101854.44;20727166;28;20073;-87
2023/04/07 20:35:27;;;;;;;1.80;1.60;;;;;;;17.20;50.57;101847.44;20713144;28;20042;-86
2023/04/07 20:45:29;;;;;;;1.55;1.45;;;;;;;17.29;50.39;101859.41;20733297;28;20056;-87
2023/04/07 20:55:31;;;;;;;2.00;1.80;;;;;;;17.32;49.94;101878.03;20727007;28;20046;-86
2023/04/07 21:05:33;;;;;;;1.92;1.60;;;;;;;17.32;49.72;101884.25;20726737;28;20046;-87
2023/04/07 21:15:36;;;;;;;2.22;1.33;;;;;;;17.31;49.58;101896.00;20725727;28;20640;-87
2023/04/07 21:25:38;;;;;;;1.58;1.23;;;;;;;17.15;49.18;101874.69;20727299;28;20084;-87
2023/04/07 21:35:40;;;;;;;2.30;1.42;;;;;;;17.19;49.12;101892.31;20739996;28;20054;-87
2023/04/07 21:45:42;;;;;;;1.60;1.50;;;;;;;17.29;48.75;101914.06;20723126;28;20046;-87
2023/04/07 21:55:43;;;;;;;1.48;1.38;;;;;;;17.16;48.41;101895.22;20739350;28;20052;-87
2023/04/07 22:05:45;;;;;;;1.92;1.42;;;;;;;17.29;48.44;101924.00;20733382;28;20061;-87
2023/04/07 22:15:48;;;;;;;1.65;1.35;;;;;;;17.22;48.25;101910.94;20737785;28;20046;-87
2023/04/07 22:25:50;;;;;;;2.13;1.60;;;;;;;17.26;47.94;101938.50;20753563;28;20108;-87
2023/04/07 22:35:52;;;;;;;1.50;1.40;;;;;;;17.28;47.94;101941.13;20753238;28;20050;-86
2023/04/07 22:45:54;;;;;;;1.58;1.30;;;;;;;17.26;47.63;101951.97;20736443;28;20050;-88
2023/04/07 22:55:56;;;;;;;1.52;1.20;;;;;;;17.27;47.52;101966.31;20768082;28;20088;-87
2023/04/07 23:06:00;;;;;;;1.52;1.23;;;;;;;17.24;47.30;101970.94;20750804;28;20045;-87
2023/04/07 23:16:02;;;;;;;1.70;1.38;;;;;;;17.23;47.23;101974.59;20738794;28;20423;-87
2023/04/07 23:26:05;;;;;;;1.90;1.17;;;;;;;17.23;47.18;101985.34;20731540;28;20085;-87
2023/04/07 23:36:07;;;;;;;1.98;1.38;;;;;;;17.24;46.71;101997.84;20746193;28;20045;-87
2023/04/07 23:46:09;;;;;;;1.88;1.30;;;;;;;17.21;46.97;101995.34;20745203;28;20076;-86
2023/04/07 23:56:10;;;;;;;1.40;1.20;;;;;;;17.18;46.81;101992.84;20730299;28;20049;-87
